Rp Zug — HE7351 — position and weather

sailwx.info

Track history (hours):
 
Tides and Currents Weather Stations Pressure Air Temp Water Temp Dewpoint Dewpoint Depression Visibility Wind Speed Wind Dir Waves Ship Positions

Rp Zug

Last reported at 2016-May-27 03:24 UTC. Time now 2016-May-27 14:19 UTC.
Position N 49°23' E 008°30'.

Length 110 m; draft 2.3 m.

Type: Tanker. MMSI: 269057351.

Date/timePositionNaut miles runAvg speedWind from/ knotsBaromVisibWave heightAir tempDewpointWater temp
2016-May-27 03:24N 49°23' E 008°30'6 7.1
2016-May-27 02:33N 49°17' E 008°28'9 8.6
2016-May-27 01:33N 49°09' E 008°22'9 9.4
2016-May-27 00:33N 49°00' E 008°18'87 4.5
2016-May-26 05:23N 47°39' E 007°32'1 1.4
2016-May-26 04:32N 47°38' E 007°33'6 5.8
2016-May-26 03:33N 47°34' E 007°37'2 1.3
2016-May-26 02:26N 47°33' E 007°39'0 0.0
2016-May-25 23:11N 47°33' E 007°39'0 0.0
2016-May-25 22:32N 47°33' E 007°39'0 0.0
2016-May-25 20:17N 47°33' E 007°39'0 0.0
2016-May-25 18:20N 47°33' E 007°39'0 0.0
2016-May-25 17:08N 47°33' E 007°39'0 0.0
2016-May-25 16:31N 47°33' E 007°39'0 0.0
2016-May-25 14:23N 47°33' E 007°39'0 0.0
2016-May-25 06:30N 47°33' E 007°39'1 1.5
2016-May-25 05:33N 47°34' E 007°38'2 0.3
2016-May-24 23:23N 47°34' E 007°35'93 3.6
2016-May-23 21:32N 49°03' E 008°18'2 1.4
2016-May-23 20:21N 49°04' E 008°20'0 0.0
2016-May-23 18:21N 49°04' E 008°20'0 0.0
2016-May-23 17:27N 49°04' E 008°20'0 0.0
2016-May-23 16:21N 49°04' E 008°20'0 0.0
2016-May-23 15:33N 49°04' E 008°20'0 0.0
2016-May-23 14:33N 49°04' E 008°20'0 0.0
2016-May-23 13:18N 49°04' E 008°20'0 0.0
2016-May-23 12:12N 49°04' E 008°20'0 0.0
2016-May-23 10:33N 49°04' E 008°20'0 0.0
2016-May-23 09:06N 49°04' E 008°20'0 0.0
2016-May-23 08:30N 49°04' E 008°20'0 0.1
2016-May-23 07:30N 49°04' E 008°20'0 0.0
2016-May-23 06:30N 49°04' E 008°20'0 0.0
2016-May-23 05:30N 49°04' E 008°20'0 0.0
2016-May-23 04:33N 49°04' E 008°20'0 0.0
2016-May-23 03:33N 49°04' E 008°20'0 0.0
2016-May-23 02:33N 49°04' E 008°20'0 0.0
2016-May-23 01:33N 49°04' E 008°20'0 0.0
2016-May-23 00:33N 49°04' E 008°20'0 0.0
2016-May-22 23:33N 49°04' E 008°20'0 0.0
2016-May-22 22:30N 49°04' E 008°20'0 0.0
2016-May-22 21:15N 49°04' E 008°20'0 0.0
2016-May-22 20:33N 49°04' E 008°20'0 0.0
2016-May-22 19:33N 49°04' E 008°20'0 0.0
2016-May-22 18:33N 49°04' E 008°20'0 0.0
2016-May-22 17:30N 49°04' E 008°20'0 0.0
2016-May-22 16:33N 49°04' E 008°20'0 0.0
2016-May-22 15:33N 49°04' E 008°20'0 0.0
2016-May-22 14:33N 49°04' E 008°20'0 0.4
2016-May-22 13:33N 49°04' E 008°20'19 7.9
2016-May-22 11:12N 48°48' E 008°05'77 3.1
2016-May-21 10:20N 47°33' E 007°36'1 0.2
2016-May-21 03:12N 47°33' E 007°38'0 0.0
2016-May-21 02:33N 47°33' E 007°38'0 0.0
2016-May-21 01:30N 47°33' E 007°38'0 0.0
2016-May-21 00:33N 47°33' E 007°38'0 0.0
2016-May-20 23:31N 47°33' E 007°38'0 0.0
2016-May-20 22:14N 47°33' E 007°38'0 0.0
2016-May-20 21:32N 47°33' E 007°38'0 0.0
2016-May-20 20:32N 47°33' E 007°38'0 0.0
2016-May-20 19:28N 47°33' E 007°38'0 0.0
2016-May-20 18:31N 47°33' E 007°38'0 0.0
2016-May-20 17:32N 47°33' E 007°38'88 3.5
2016-May-19 16:20N 48°58' E 008°13'3 4.4
2016-May-19 15:33N 49°00' E 008°17'4 4.4
2016-May-19 14:34N 49°04' E 008°20'1 0.4
2016-May-19 13:24N 49°04' E 008°20'0 0.0
2016-May-19 12:33N 49°04' E 008°20'0 0.0
2016-May-19 11:30N 49°04' E 008°20'0 0.0
2016-May-19 10:33N 49°04' E 008°20'0 0.0
2016-May-19 09:30N 49°04' E 008°20'0 0.0
2016-May-19 08:24N 49°04' E 008°20'0 0.0
2016-May-19 07:27N 49°04' E 008°20'0 0.0
2016-May-19 06:24N 49°04' E 008°20'0 0.2
2016-May-19 05:33N 49°04' E 008°20'0 0.1
2016-May-19 04:33N 49°04' E 008°20'0 0.0
2016-May-19 03:33N 49°04' E 008°20'0 0.0
2016-May-19 02:33N 49°04' E 008°20'0 0.0
2016-May-19 01:33N 49°04' E 008°20'0 0.0
2016-May-19 00:33N 49°04' E 008°20'0 0.0
2016-May-18 23:33N 49°04' E 008°20'0 0.0
2016-May-18 22:33N 49°04' E 008°20'0 0.0
2016-May-18 21:33N 49°04' E 008°20'0 0.0
2016-May-18 20:33N 49°04' E 008°20'0 0.0
2016-May-18 19:33N 49°04' E 008°20'0 0.0
2016-May-18 18:30N 49°04' E 008°20'0 0.0
2016-May-18 17:33N 49°04' E 008°20'0 0.0
2016-May-18 16:33N 49°04' E 008°20'0 0.0
2016-May-18 15:33N 49°04' E 008°20'3 3.0
2016-May-18 14:33N 49°07' E 008°22'6 5.7
2016-May-18 13:33N 49°13' E 008°23'6 5.8
2016-May-18 12:33N 49°17' E 008°29'5 5.1
2016-May-18 11:33N 49°22' E 008°30'  
Track history (hours):
 
Tides and Currents Weather Stations Pressure Air Temp Water Temp Dewpoint Dewpoint Depression Visibility Wind Speed Wind Dir Waves Ship Positions

Rp Zug

Last reported at 2016-May-27 03:24 UTC. Time now 2016-May-27 14:19 UTC.
Position N 49°23' E 008°30'.

Length 110 m; draft 2.3 m.

Type: Tanker. MMSI: 269057351.

Date/timePositionNaut miles runAvg speedWind from/ knotsBaromVisibWave heightAir tempDewpointWater temp
2016-May-27 03:24N 49°23' E 008°30'6 7.1
2016-May-27 02:33N 49°17' E 008°28'9 8.6
2016-May-27 01:33N 49°09' E 008°22'9 9.4
2016-May-27 00:33N 49°00' E 008°18'87 4.5
2016-May-26 05:23N 47°39' E 007°32'1 1.4
2016-May-26 04:32N 47°38' E 007°33'6 5.8
2016-May-26 03:33N 47°34' E 007°37'2 1.3
2016-May-26 02:26N 47°33' E 007°39'0 0.0
2016-May-25 23:11N 47°33' E 007°39'0 0.0
2016-May-25 22:32N 47°33' E 007°39'0 0.0
2016-May-25 20:17N 47°33' E 007°39'0 0.0
2016-May-25 18:20N 47°33' E 007°39'0 0.0
2016-May-25 17:08N 47°33' E 007°39'0 0.0
2016-May-25 16:31N 47°33' E 007°39'0 0.0
2016-May-25 14:23N 47°33' E 007°39'0 0.0
2016-May-25 06:30N 47°33' E 007°39'1 1.5
2016-May-25 05:33N 47°34' E 007°38'2 0.3
2016-May-24 23:23N 47°34' E 007°35'93 3.6
2016-May-23 21:32N 49°03' E 008°18'2 1.4
2016-May-23 20:21N 49°04' E 008°20'0 0.0
2016-May-23 18:21N 49°04' E 008°20'0 0.0
2016-May-23 17:27N 49°04' E 008°20'0 0.0
2016-May-23 16:21N 49°04' E 008°20'0 0.0
2016-May-23 15:33N 49°04' E 008°20'0 0.0
2016-May-23 14:33N 49°04' E 008°20'0 0.0
2016-May-23 13:18N 49°04' E 008°20'0 0.0
2016-May-23 12:12N 49°04' E 008°20'0 0.0
2016-May-23 10:33N 49°04' E 008°20'0 0.0
2016-May-23 09:06N 49°04' E 008°20'0 0.0
2016-May-23 08:30N 49°04' E 008°20'0 0.1
2016-May-23 07:30N 49°04' E 008°20'0 0.0
2016-May-23 06:30N 49°04' E 008°20'0 0.0
2016-May-23 05:30N 49°04' E 008°20'0 0.0
2016-May-23 04:33N 49°04' E 008°20'0 0.0
2016-May-23 03:33N 49°04' E 008°20'0 0.0
2016-May-23 02:33N 49°04' E 008°20'0 0.0
2016-May-23 01:33N 49°04' E 008°20'0 0.0
2016-May-23 00:33N 49°04' E 008°20'0 0.0
2016-May-22 23:33N 49°04' E 008°20'0 0.0
2016-May-22 22:30N 49°04' E 008°20'0 0.0
2016-May-22 21:15N 49°04' E 008°20'0 0.0
2016-May-22 20:33N 49°04' E 008°20'0 0.0
2016-May-22 19:33N 49°04' E 008°20'0 0.0
2016-May-22 18:33N 49°04' E 008°20'0 0.0
2016-May-22 17:30N 49°04' E 008°20'0 0.0
2016-May-22 16:33N 49°04' E 008°20'0 0.0
2016-May-22 15:33N 49°04' E 008°20'0 0.0
2016-May-22 14:33N 49°04' E 008°20'0 0.4
2016-May-22 13:33N 49°04' E 008°20'19 7.9
2016-May-22 11:12N 48°48' E 008°05'77 3.1
2016-May-21 10:20N 47°33' E 007°36'1 0.2
2016-May-21 03:12N 47°33' E 007°38'0 0.0
2016-May-21 02:33N 47°33' E 007°38'0 0.0
2016-May-21 01:30N 47°33' E 007°38'0 0.0
2016-May-21 00:33N 47°33' E 007°38'0 0.0
2016-May-20 23:31N 47°33' E 007°38'0 0.0
2016-May-20 22:14N 47°33' E 007°38'0 0.0
2016-May-20 21:32N 47°33' E 007°38'0 0.0
2016-May-20 20:32N 47°33' E 007°38'0 0.0
2016-May-20 19:28N 47°33' E 007°38'0 0.0
2016-May-20 18:31N 47°33' E 007°38'0 0.0
2016-May-20 17:32N 47°33' E 007°38'88 3.5
2016-May-19 16:20N 48°58' E 008°13'3 4.4
2016-May-19 15:33N 49°00' E 008°17'4 4.4
2016-May-19 14:34N 49°04' E 008°20'1 0.4
2016-May-19 13:24N 49°04' E 008°20'0 0.0
2016-May-19 12:33N 49°04' E 008°20'0 0.0
2016-May-19 11:30N 49°04' E 008°20'0 0.0
2016-May-19 10:33N 49°04' E 008°20'0 0.0
2016-May-19 09:30N 49°04' E 008°20'0 0.0
2016-May-19 08:24N 49°04' E 008°20'0 0.0
2016-May-19 07:27N 49°04' E 008°20'0 0.0
2016-May-19 06:24N 49°04' E 008°20'0 0.2
2016-May-19 05:33N 49°04' E 008°20'0 0.1
2016-May-19 04:33N 49°04' E 008°20'0 0.0
2016-May-19 03:33N 49°04' E 008°20'0 0.0
2016-May-19 02:33N 49°04' E 008°20'0 0.0
2016-May-19 01:33N 49°04' E 008°20'0 0.0
2016-May-19 00:33N 49°04' E 008°20'0 0.0
2016-May-18 23:33N 49°04' E 008°20'0 0.0
2016-May-18 22:33N 49°04' E 008°20'0 0.0
2016-May-18 21:33N 49°04' E 008°20'0 0.0
2016-May-18 20:33N 49°04' E 008°20'0 0.0
2016-May-18 19:33N 49°04' E 008°20'0 0.0
2016-May-18 18:30N 49°04' E 008°20'0 0.0
2016-May-18 17:33N 49°04' E 008°20'0 0.0
2016-May-18 16:33N 49°04' E 008°20'0 0.0
2016-May-18 15:33N 49°04' E 008°20'3 3.0
2016-May-18 14:33N 49°07' E 008°22'6 5.7
2016-May-18 13:33N 49°13' E 008°23'6 5.8
2016-May-18 12:33N 49°17' E 008°29'5 5.1
2016-May-18 11:33N 49°22' E 008°30'  

Dump ship's entire track history